createdAt,value
2018-05-17T00:01:09.529Z,17.45
2018-05-17T00:02:19.357Z,17.47
2018-05-17T00:03:29.465Z,17.5
2018-05-17T00:04:39.267Z,17.49
2018-05-17T00:05:49.361Z,17.47
2018-05-17T00:06:59.451Z,17.43
2018-05-17T00:08:09.525Z,17.46
2018-05-17T00:09:19.352Z,17.46
2018-05-17T00:10:29.210Z,17.45
2018-05-17T00:11:39.293Z,17.43
2018-05-17T00:12:49.367Z,17.43
2018-05-17T00:13:59.438Z,17.43
2018-05-17T00:15:09.540Z,17.46
2018-05-17T00:16:19.630Z,17.38
2018-05-17T00:17:29.693Z,17.42
2018-05-17T00:18:39.786Z,17.42
2018-05-17T00:19:49.604Z,17.42
2018-05-17T00:20:59.485Z,17.47
2018-05-17T00:22:09.620Z,17.42
2018-05-17T00:23:19.689Z,17.4
2018-05-17T00:24:29.818Z,17.38
2018-05-17T00:25:39.901Z,17.39
2018-05-17T00:26:49.982Z,17.36
2018-05-17T00:28:00.053Z,17.36
2018-05-17T00:29:10.126Z,17.32
2018-05-17T00:30:20.192Z,17.36
2018-05-17T00:31:30.273Z,17.31
2018-05-17T00:32:40.368Z,17.32
2018-05-17T00:33:50.507Z,17.24
2018-05-17T00:35:00.580Z,17.2
2018-05-17T00:36:10.656Z,17.27
2018-05-17T00:37:20.722Z,17.28
2018-05-17T00:38:30.783Z,17.2
2018-05-17T00:39:40.676Z,17.21
2018-05-17T00:40:50.754Z,17.07
2018-05-17T00:42:00.825Z,17.2
2018-05-17T00:43:10.915Z,17.1
2018-05-17T00:44:20.988Z,17.13
2018-05-17T00:45:30.853Z,17.06
2018-05-17T00:46:40.920Z,17.07
2018-05-17T00:47:50.756Z,17.05
2018-05-17T00:49:00.828Z,17.09
2018-05-17T00:50:10.917Z,17.17
2018-05-17T00:51:20.996Z,17.05
2018-05-17T00:52:31.245Z,17.12
2018-05-17T00:53:41.328Z,17.12
2018-05-17T00:54:51.143Z,17.1
2018-05-17T00:56:00.953Z,17.05
2018-05-17T00:57:11.033Z,17.05
2018-05-17T00:58:20.846Z,17.13
2018-05-17T00:59:30.934Z,17.1
2018-05-17T01:00:40.754Z,17.09
2018-05-17T01:01:50.845Z,17.02
2018-05-17T01:03:00.751Z,17.06
2018-05-17T01:04:10.814Z,16.88
2018-05-17T01:05:20.884Z,16.9
2018-05-17T01:06:30.989Z,17.02
2018-05-17T01:07:41.063Z,16.88
2018-05-17T01:08:50.927Z,16.9
2018-05-17T01:10:01.009Z,16.97
2018-05-17T01:11:10.815Z,17.03
2018-05-17T01:12:20.878Z,17.02
2018-05-17T01:13:30.771Z,16.97
2018-05-17T01:14:40.880Z,16.94
2018-05-17T01:15:50.971Z,16.91
2018-05-17T01:17:01.050Z,16.88
2018-05-17T01:18:11.131Z,16.91
2018-05-17T01:19:21.293Z,16.92
2018-05-17T01:20:31.108Z,16.84
2018-05-17T01:21:41.181Z,16.87
2018-05-17T01:22:51.254Z,16.81
2018-05-17T01:24:01.345Z,16.82
2018-05-17T01:25:11.415Z,16.7
2018-05-17T01:26:21.590Z,16.66
2018-05-17T01:27:31.677Z,16.66
2018-05-17T01:28:41.741Z,16.76
2018-05-17T01:29:51.823Z,16.67
2018-05-17T01:31:01.639Z,16.65
2018-05-17T01:32:11.712Z,16.57
2018-05-17T01:33:21.789Z,16.57
2018-05-17T01:34:31.876Z,16.52
2018-05-17T01:35:41.698Z,16.54
2018-05-17T01:36:51.768Z,16.62
2018-05-17T01:38:01.887Z,16.58
2018-05-17T01:39:11.966Z,16.58
2018-05-17T01:40:22.036Z,16.57
2018-05-17T01:41:32.126Z,16.57
2018-05-17T01:42:42.244Z,16.65
2018-05-17T01:43:52.100Z,16.62
2018-05-17T01:45:02.174Z,16.58
2018-05-17T01:46:11.993Z,16.54
2018-05-17T01:47:22.059Z,16.62
2018-05-17T01:48:31.866Z,16.58
2018-05-17T01:49:42.034Z,16.63
2018-05-17T01:50:52.108Z,16.62
2018-05-17T01:52:02.182Z,16.57
2018-05-17T01:53:12.263Z,16.55
2018-05-17T01:54:22.334Z,16.62
2018-05-17T01:55:32.404Z,16.57
2018-05-17T01:56:41.945Z,16.59
2018-05-17T01:57:51.771Z,16.58
2018-05-17T01:59:01.590Z,16.59
2018-05-17T02:00:11.744Z,16.59
2018-05-17T02:01:21.890Z,16.58
2018-05-17T02:02:31.988Z,16.52
2018-05-17T02:03:42.072Z,16.55
2018-05-17T02:04:51.895Z,16.52
2018-05-17T02:06:02.089Z,16.58
2018-05-17T02:07:12.165Z,16.44
2018-05-17T02:08:22.244Z,16.54
2018-05-17T02:09:32.322Z,16.4
2018-05-17T02:10:42.452Z,16.47
2018-05-17T02:11:52.277Z,16.45
2018-05-17T02:13:02.385Z,16.42
2018-05-17T02:14:12.468Z,16.42
2018-05-17T02:15:22.290Z,16.45
2018-05-17T02:16:32.366Z,16.48
2018-05-17T02:17:42.467Z,16.4
2018-05-17T02:18:52.320Z,16.42
2018-05-17T02:20:02.397Z,16.48
2018-05-17T02:21:12.457Z,16.45
2018-05-17T02:22:22.257Z,16.49
2018-05-17T02:23:32.065Z,16.37
2018-05-17T02:24:41.887Z,16.4
2018-05-17T02:25:51.974Z,16.42
2018-05-17T02:27:02.054Z,16.47
2018-05-17T02:28:12.122Z,16.54
2018-05-17T02:29:22.209Z,16.54
2018-05-17T02:30:32.276Z,16.51
2018-05-17T02:31:42.381Z,16.51
2018-05-17T02:32:52.458Z,16.54
2018-05-17T02:34:02.288Z,16.57
2018-05-17T02:35:12.381Z,16.57
2018-05-17T02:36:22.185Z,16.55
2018-05-17T02:37:32.250Z,16.57
2018-05-17T02:38:42.326Z,16.4
2018-05-17T02:39:52.417Z,16.4
2018-05-17T02:41:02.499Z,16.44
2018-05-17T02:42:12.642Z,16.48
2018-05-17T02:43:22.718Z,16.55
2018-05-17T02:44:32.541Z,16.47
2018-05-17T02:45:42.619Z,16.48
2018-05-17T02:46:52.692Z,16.44
2018-05-17T02:48:02.833Z,16.47
2018-05-17T02:49:13.164Z,16.55
2018-05-17T02:50:23.275Z,16.45
2018-05-17T02:51:33.100Z,16.47
2018-05-17T02:52:43.170Z,16.44
2018-05-17T02:53:52.997Z,16.51
2018-05-17T02:55:03.072Z,16.42
2018-05-17T02:56:13.172Z,16.45
2018-05-17T02:57:22.977Z,16.47
2018-05-17T02:58:32.264Z,16.48
2018-05-17T02:59:42.332Z,16.39
2018-05-17T03:00:51.888Z,16.39
2018-05-17T03:02:01.697Z,16.39
2018-05-17T03:34:30.089Z,14.51
2018-05-17T03:35:40.156Z,14.52
2018-05-17T03:36:50.218Z,14.63
2018-05-17T03:37:59.762Z,14.74
2018-05-17T03:39:09.834Z,14.67
2018-05-17T03:40:19.903Z,14.75
2018-05-17T03:41:29.967Z,14.9
2018-05-17T03:42:40.036Z,15.16
2018-05-17T03:43:50.090Z,15.33
2018-05-17T03:44:59.895Z,15.44
2018-05-17T03:46:10.018Z,15.63
2018-05-17T03:47:20.093Z,15.83
2018-05-17T03:48:30.165Z,16
2018-05-17T03:49:40.250Z,16.17
2018-05-17T03:50:50.338Z,16.37
2018-05-17T03:52:00.484Z,16.47
2018-05-17T03:53:10.575Z,16.47
2018-05-17T03:54:20.640Z,16.63
2018-05-17T03:55:30.723Z,16.8
2018-05-17T03:56:40.799Z,16.94
2018-05-17T03:57:50.886Z,17
2018-05-17T03:59:00.969Z,17.15
2018-05-17T04:00:11.048Z,17.22
2018-05-17T04:01:20.979Z,17.31
2018-05-17T04:02:31.358Z,17.35
2018-05-17T04:03:41.508Z,17.38
2018-05-17T04:04:51.593Z,17.45
2018-05-17T04:06:01.675Z,17.46
2018-05-17T04:07:11.758Z,17.49
2018-05-17T04:08:21.845Z,17.68
2018-05-17T04:09:31.725Z,17.77
2018-05-17T04:10:41.787Z,17.84
2018-05-17T04:11:51.614Z,17.94
2018-05-17T04:13:01.742Z,18.01
2018-05-17T04:14:11.821Z,18.11
2018-05-17T04:15:21.946Z,18.2
2018-05-17T04:16:32.008Z,18.29
2018-05-17T04:17:41.829Z,18.49
2018-05-17T04:18:51.653Z,18.47
2018-05-17T04:20:01.743Z,18.68
2018-05-17T04:21:11.609Z,18.75
2018-05-17T04:22:21.712Z,18.94
2018-05-17T04:23:31.799Z,18.94
2018-05-17T04:24:41.894Z,19.19
2018-05-17T04:25:51.984Z,19.43
2018-05-17T04:27:02.066Z,19.55
2018-05-17T04:28:11.920Z,19.61
2018-05-17T04:29:22.249Z,19.56
2018-05-17T04:30:32.333Z,19.6
2018-05-17T04:31:42.435Z,20.11
2018-05-17T04:32:52.562Z,20.71
2018-05-17T04:34:02.363Z,21.06
2018-05-17T04:35:12.447Z,21.23
2018-05-17T04:36:22.553Z,21.34
2018-05-17T04:37:32.622Z,21.41
2018-05-17T04:38:42.721Z,21.53
2018-05-17T04:39:52.801Z,21.55
2018-05-17T04:41:02.623Z,21.51
2018-05-17T04:42:12.717Z,21.71
2018-05-17T04:43:22.547Z,21.97
2018-05-17T04:44:32.661Z,22.36
2018-05-17T04:45:42.741Z,22.84
2018-05-17T04:46:52.548Z,23.55
2018-05-17T04:48:02.645Z,24.08
2018-05-17T04:49:12.749Z,24.46
2018-05-17T04:50:22.584Z,24.08
2018-05-17T04:51:32.676Z,24.15
2018-05-17T04:52:42.763Z,24.34
2018-05-17T04:53:52.577Z,24.54
2018-05-17T04:55:02.696Z,24.54
2018-05-17T04:56:12.792Z,24.63
2018-05-17T04:57:22.600Z,24.56
2018-05-17T04:58:32.664Z,24.15
2018-05-17T04:59:42.491Z,23.89
2018-05-17T05:00:52.607Z,23.67
2018-05-17T05:02:02.426Z,23.4
2018-05-17T05:03:12.507Z,22.76
2018-05-17T05:04:22.341Z,22.31
2018-05-17T05:05:32.141Z,21.97
2018-05-17T05:06:42.229Z,21.68
2018-05-17T05:07:52.100Z,21.51
2018-05-17T05:09:02.192Z,21.53
2018-05-17T05:10:12.347Z,21.51
2018-05-17T05:11:22.417Z,21.64
2018-05-17T05:12:32.489Z,21.56
2018-05-17T05:13:42.629Z,21.52
2018-05-17T05:14:52.439Z,21.48
2018-05-17T05:16:02.536Z,21.58
2018-05-17T05:17:12.627Z,21.73
2018-05-17T05:18:22.730Z,21.66
2018-05-17T05:19:32.591Z,21.62
2018-05-17T05:20:42.688Z,21.76
2018-05-17T05:21:52.778Z,22.24
2018-05-17T05:23:02.850Z,22.79
2018-05-17T05:24:12.929Z,23.38
2018-05-17T05:25:23.257Z,23.28
2018-05-17T05:26:33.449Z,23.14
2018-05-17T05:27:43.544Z,22.76
2018-05-17T05:28:53.439Z,22.52
2018-05-17T05:30:03.267Z,22.39
2018-05-17T05:31:12.883Z,22.41
2018-05-17T05:32:22.691Z,22.3
2018-05-17T05:33:32.765Z,22.08
2018-05-17T05:34:42.827Z,21.8
2018-05-17T05:35:52.894Z,21.64
2018-05-17T05:37:02.966Z,21.46
2018-05-17T05:38:13.038Z,21.38
2018-05-17T05:39:22.597Z,21.27
2018-05-17T05:40:32.673Z,21.19
2018-05-17T05:41:42.755Z,21.22
2018-05-17T05:42:52.851Z,21.22
2018-05-17T05:44:02.946Z,21.31
2018-05-17T05:45:13.019Z,21.48
2018-05-17T05:46:23.098Z,21.62
2018-05-17T05:47:32.648Z,22.12
2018-05-17T05:48:42.531Z,22.14
2018-05-17T05:49:52.592Z,22.14
2018-05-17T05:51:02.659Z,22.23
2018-05-17T05:52:12.755Z,22.16
2018-05-17T05:53:22.606Z,22.08
2018-05-17T05:54:32.474Z,21.9
2018-05-17T05:55:42.292Z,21.85
2018-05-17T05:56:52.115Z,21.83
2018-05-17T05:58:02.202Z,21.78
2018-05-17T05:59:12.309Z,21.71
2018-05-17T06:00:22.468Z,21.8
2018-05-17T06:01:32.297Z,21.77
2018-05-17T06:02:41.856Z,21.8
2018-05-17T06:03:51.684Z,21.76
2018-05-17T06:05:01.779Z,21.82
2018-05-17T06:06:11.650Z,21.74
2018-05-17T06:07:21.734Z,21.83
2018-05-17T06:08:31.578Z,21.78
2018-05-17T06:09:41.667Z,21.78
2018-05-17T06:10:51.751Z,21.77
2018-05-17T06:12:01.852Z,21.77
2018-05-17T06:13:11.946Z,21.92
2018-05-17T06:14:21.771Z,22.09
2018-05-17T06:15:31.854Z,22.24
2018-05-17T06:16:41.654Z,22.59
2018-05-17T06:17:51.717Z,22.89
2018-05-17T06:19:01.800Z,22.94
2018-05-17T06:20:11.897Z,23.15
2018-05-17T06:21:21.988Z,23.37
2018-05-17T06:22:32.078Z,23.47
2018-05-17T06:23:41.958Z,23.52
2018-05-17T06:24:52.124Z,23.6
2018-05-17T06:26:02.204Z,23.75
2018-05-17T06:27:12.306Z,23.89
2018-05-17T06:28:22.417Z,24.07
2018-05-17T06:29:32.524Z,24.12
2018-05-17T06:30:42.591Z,24.15
2018-05-17T06:31:52.408Z,24.09
2018-05-17T06:33:02.471Z,24.04
2018-05-17T06:34:12.543Z,24
2018-05-17T06:35:22.611Z,23.99
2018-05-17T06:36:32.693Z,23.85
2018-05-17T06:37:43.038Z,23.75
2018-05-17T06:38:53.114Z,23.72
2018-05-17T06:40:03.195Z,23.7
2018-05-17T06:41:12.538Z,23.62
2018-05-17T06:42:22.367Z,23.63
2018-05-17T06:43:32.461Z,23.6
2018-05-17T06:44:42.278Z,23.7
2018-05-17T06:45:52.088Z,23.7
2018-05-17T06:47:02.192Z,23.67
2018-05-17T06:48:12.014Z,23.66
2018-05-17T06:49:21.841Z,23.55
2018-05-17T06:50:31.910Z,23.37
2018-05-17T06:51:41.966Z,23.22
2018-05-17T06:52:52.096Z,23.14
2018-05-17T06:54:02.164Z,23.06
2018-05-17T06:55:12.233Z,22.89
2018-05-17T06:56:22.318Z,22.92
2018-05-17T06:57:32.388Z,22.94
2018-05-17T06:58:42.493Z,23.06
2018-05-17T06:59:52.559Z,23.16
2018-05-17T07:01:02.659Z,23.24
2018-05-17T07:02:12.484Z,23.37
2018-05-17T07:03:22.675Z,23.57
2018-05-17T07:04:32.776Z,23.48
2018-05-17T07:05:42.584Z,23.6
2018-05-17T07:06:52.397Z,23.66
2018-05-17T07:08:02.485Z,23.62
2018-05-17T07:09:12.037Z,23.66
2018-05-17T07:10:22.182Z,23.62
2018-05-17T07:11:32.317Z,23.55
2018-05-17T07:12:42.404Z,23.55
2018-05-17T07:13:52.213Z,23.55
2018-05-17T07:15:02.292Z,23.42
2018-05-17T07:16:12.385Z,23.32
2018-05-17T07:17:22.487Z,23.25
2018-05-17T07:18:33.206Z,23.26
2018-05-17T07:19:44.463Z,23.15
2018-05-17T07:20:54.526Z,23.1
2018-05-17T07:22:04.115Z,22.97
2018-05-17T07:23:14.191Z,22.89
2018-05-17T07:24:24.286Z,23
2018-05-17T07:25:34.089Z,23.03
2018-05-17T07:26:44.179Z,23.04
2018-05-17T07:27:54.316Z,23.09
2018-05-17T07:29:04.408Z,23.09
2018-05-17T07:30:14.481Z,23.16
2018-05-17T07:31:24.210Z,23.22
2018-05-17T07:32:34.571Z,23.45
2018-05-17T07:33:44.120Z,23.6
2018-05-17T07:34:53.929Z,23.64
2018-05-17T07:36:04.014Z,23.78
2018-05-17T07:37:14.092Z,23.87
2018-05-17T07:38:24.186Z,23.82
2018-05-17T07:39:34.004Z,23.89
2018-05-17T07:40:43.865Z,23.78
2018-05-17T07:41:53.956Z,23.67
2018-05-17T07:43:03.529Z,23.59
2018-05-17T07:44:13.620Z,23.47
2018-05-17T07:45:23.448Z,23.34
2018-05-17T07:46:33.299Z,23.24
2018-05-17T07:47:43.402Z,23.18
2018-05-17T07:48:53.508Z,23.01
2018-05-17T07:50:03.074Z,22.92
2018-05-17T07:51:12.897Z,22.99
2018-05-17T07:52:22.969Z,22.92
2018-05-17T07:53:33.056Z,23
2018-05-17T07:54:43.147Z,23
2018-05-17T07:55:53.214Z,22.99
2018-05-17T07:57:03.342Z,23
2018-05-17T07:58:13.431Z,22.99
2018-05-17T07:59:23.517Z,22.85
2018-05-17T08:00:33.814Z,22.82
2018-05-17T08:01:44.247Z,22.88
2018-05-17T08:02:54.146Z,22.85
2018-05-17T08:04:04.221Z,22.91
2018-05-17T08:05:14.393Z,22.85
2018-05-17T08:06:24.229Z,22.84
2018-05-17T08:07:34.310Z,22.78
2018-05-17T08:08:44.156Z,22.73
2018-05-17T08:09:54.241Z,22.69
2018-05-17T08:11:04.324Z,22.7
2018-05-17T08:12:14.428Z,22.67
2018-05-17T08:13:24.507Z,22.64
2018-05-17T08:14:34.580Z,22.7
2018-05-17T08:15:44.677Z,22.75
2018-05-17T08:16:54.779Z,22.75
2018-05-17T08:18:04.501Z,22.92
2018-05-17T08:19:14.615Z,22.89
2018-05-17T08:20:24.791Z,22.91
2018-05-17T08:21:34.601Z,23.01
2018-05-17T08:22:44.414Z,22.92
2018-05-17T08:23:54.507Z,22.94
2018-05-17T08:25:04.617Z,23.03
2018-05-17T08:26:14.505Z,23.04
2018-05-17T08:27:24.588Z,23.07
2018-05-17T08:28:34.665Z,23.1
2018-05-17T08:29:44.753Z,23.18
2018-05-17T08:30:54.836Z,23.19
2018-05-17T08:32:06.494Z,23.22
2018-05-17T08:33:18.113Z,23.34
2018-05-17T08:34:28.187Z,23.35
2018-05-17T08:35:38.036Z,23.53
2018-05-17T08:36:48.041Z,23.7
2018-05-17T08:37:58.387Z,23.74
2018-05-17T08:39:08.509Z,24
2018-05-17T08:40:18.620Z,24.09
2018-05-17T08:41:28.445Z,24.26
2018-05-17T08:42:38.705Z,24.33
2018-05-17T08:43:48.640Z,24.45
2018-05-17T08:44:58.731Z,24.61
2018-05-17T08:46:08.566Z,24.63
2018-05-17T08:47:18.392Z,24.77
2018-05-17T08:48:28.492Z,24.85
2018-05-17T08:49:38.329Z,24.78
2018-05-17T08:50:48.497Z,24.89
2018-05-17T08:51:58.600Z,25.01
2018-05-17T08:53:08.431Z,25.14
2018-05-17T08:54:18.660Z,25.23
2018-05-17T08:55:28.620Z,25.23
2018-05-17T08:56:38.760Z,25.2
2018-05-17T08:57:48.581Z,25.27
2018-05-17T08:58:58.145Z,25.2
2018-05-17T09:00:07.972Z,25.15
2018-05-17T09:01:18.034Z,25.12
2018-05-17T09:02:28.121Z,25.02
2018-05-17T09:03:37.959Z,24.92
2018-05-17T09:04:48.038Z,24.8
2018-05-17T09:05:57.866Z,24.71
2018-05-17T09:07:07.962Z,24.69
2018-05-17T09:08:18.049Z,24.55
2018-05-17T09:09:28.155Z,24.44
2018-05-17T09:10:38.254Z,24.18
2018-05-17T09:11:48.389Z,24.07
2018-05-17T09:12:58.518Z,24.04
2018-05-17T09:14:08.367Z,24.02
2018-05-17T09:15:18.277Z,24
2018-05-17T09:16:28.393Z,24.07
2018-05-17T09:17:38.477Z,24.08
2018-05-17T09:18:48.613Z,24.18
2018-05-17T09:19:58.692Z,24.17
2018-05-17T09:21:08.926Z,24.14
2018-05-17T09:22:19.009Z,24.15
2018-05-17T09:23:29.091Z,24.15
2018-05-17T09:24:39.200Z,24.15
2018-05-17T09:25:49.272Z,24.14
2018-05-17T09:26:59.428Z,24.03
2018-05-17T09:28:08.997Z,23.93
2018-05-17T09:29:18.958Z,23.96
2018-05-17T09:30:29.075Z,23.93
2018-05-17T09:31:38.898Z,23.96
2018-05-17T09:32:49.008Z,23.85
2018-05-17T09:33:58.567Z,23.71
2018-05-17T09:35:08.665Z,23.63
2018-05-17T09:36:18.749Z,23.63
2018-05-17T09:37:28.871Z,23.56
2018-05-17T09:38:38.953Z,23.5
2018-05-17T09:39:49.042Z,23.56
2018-05-17T09:40:58.925Z,23.57
2018-05-17T09:42:08.545Z,23.55
2018-05-17T09:43:18.648Z,23.59
2018-05-17T09:44:28.762Z,23.53
2018-05-17T09:45:38.861Z,23.48
2018-05-17T09:46:48.945Z,23.37
2018-05-17T09:47:59.077Z,23.25
2018-05-17T09:49:09.167Z,23.16
2018-05-17T09:50:19.263Z,23.19
2018-05-17T09:51:29.339Z,22.96
2018-05-17T09:52:39.179Z,22.92
2018-05-17T09:53:49.351Z,22.91
2018-05-17T09:54:59.532Z,22.81
2018-05-17T09:56:09.572Z,22.75
2018-05-17T09:57:19.677Z,22.76
2018-05-17T09:58:29.767Z,22.61
2018-05-17T09:59:39.977Z,22.48
2018-05-17T10:00:50.084Z,22.36
2018-05-17T10:02:00.205Z,22.27
2018-05-17T10:03:09.767Z,22.33
2018-05-17T10:04:19.897Z,22.34
2018-05-17T10:05:30.000Z,22.29
2018-05-17T10:06:40.080Z,22.23
2018-05-17T10:07:49.925Z,22.27
2018-05-17T10:09:00.181Z,22.2
2018-05-17T10:10:10.143Z,22.18
2018-05-17T10:11:20.229Z,22.23
2018-05-17T10:12:30.321Z,22.26
2018-05-17T10:13:40.432Z,22.36
2018-05-17T10:14:50.366Z,22.41
2018-05-17T10:16:00.465Z,22.45
2018-05-17T10:17:10.303Z,22.51
2018-05-17T10:18:20.381Z,22.6
2018-05-17T10:19:30.204Z,22.55
2018-05-17T10:20:40.303Z,22.61
2018-05-17T10:21:50.437Z,22.67
2018-05-17T10:23:00.572Z,22.67
2018-05-17T10:24:10.823Z,22.7
2018-05-17T10:25:20.917Z,22.81
2018-05-17T10:26:30.819Z,22.82
2018-05-17T10:27:40.899Z,22.88
2018-05-17T10:28:50.781Z,22.92
2018-05-17T10:30:00.878Z,23.1
2018-05-17T10:31:10.978Z,23.18
2018-05-17T10:32:21.085Z,23.16
2018-05-17T10:33:31.176Z,23.16
2018-05-17T10:34:41.262Z,23.1
2018-05-17T10:35:51.371Z,23.03
2018-05-17T10:37:01.477Z,22.89
2018-05-17T10:38:11.564Z,22.64
2018-05-17T10:39:21.637Z,22.44
2018-05-17T10:40:31.788Z,22.39
2018-05-17T10:41:41.889Z,22.26
2018-05-17T10:42:52.008Z,22.27
2018-05-17T10:44:02.118Z,22.44
2018-05-17T10:45:12.206Z,22.59
2018-05-17T10:46:22.440Z,22.64
2018-05-17T10:47:32.558Z,22.71
2018-05-17T10:48:42.702Z,22.66
2018-05-17T10:49:52.548Z,22.67
2018-05-17T10:51:02.653Z,22.71
2018-05-17T10:52:12.495Z,22.66
2018-05-17T10:53:22.596Z,22.69
2018-05-17T10:54:32.920Z,22.61
2018-05-17T10:55:43.330Z,22.66
2018-05-17T10:56:53.695Z,22.76
2018-05-17T10:58:03.515Z,22.71
2018-05-17T10:59:13.597Z,22.7
2018-05-17T11:00:23.710Z,22.57
2018-05-17T11:01:33.812Z,22.41
2018-05-17T11:02:44.206Z,22.24
2018-05-17T11:03:54.361Z,22.02
2018-05-17T11:05:04.462Z,21.78
2018-05-17T11:06:14.313Z,21.59
2018-05-17T11:07:24.428Z,21.49
2018-05-17T11:08:34.551Z,21.4
2018-05-17T11:09:44.702Z,21.41
2018-05-17T11:10:54.797Z,21.49
2018-05-17T11:12:04.394Z,21.64
2018-05-17T11:13:14.679Z,21.64
2018-05-17T11:14:24.785Z,21.7
2018-05-17T11:15:34.869Z,21.67
2018-05-17T11:16:44.425Z,21.86
2018-05-17T11:17:53.977Z,22.02
2018-05-17T11:19:04.086Z,21.94
2018-05-17T11:20:14.166Z,22.16
2018-05-17T11:21:24.031Z,22.11
2018-05-17T11:22:34.111Z,22.12
2018-05-17T11:23:43.943Z,22.15
2018-05-17T11:24:54.047Z,22.18
2018-05-17T11:26:04.298Z,22.14
2018-05-17T11:27:14.146Z,22.16
2018-05-17T11:28:24.233Z,22.12
2018-05-17T11:29:34.321Z,22.12
2018-05-17T11:30:44.414Z,22.11
2018-05-17T11:31:54.514Z,22.22
2018-05-17T11:33:04.467Z,22.14
2018-05-17T11:34:14.230Z,22.22
2018-05-17T11:35:24.346Z,22.14
2018-05-17T11:36:34.434Z,22.08
2018-05-17T11:37:44.525Z,22.09
2018-05-17T11:38:54.423Z,22.08
2018-05-17T11:40:04.515Z,22.14
2018-05-17T11:41:14.595Z,22.08
2018-05-17T11:42:24.691Z,22.09
2018-05-17T11:43:34.503Z,22.12
2018-05-17T11:44:44.589Z,22.24
2018-05-17T11:45:54.672Z,22.16
2018-05-17T11:47:04.767Z,22.18
2018-05-17T11:48:14.870Z,22.11
2018-05-17T11:49:24.772Z,22.16
2018-05-17T11:50:35.130Z,22.22
2018-05-17T11:51:44.943Z,22.29
2018-05-17T11:52:55.030Z,22.3
2018-05-17T11:54:04.865Z,22.38
2018-05-17T11:55:14.976Z,22.39
2018-05-17T11:56:24.789Z,22.39
2018-05-17T11:57:34.614Z,22.44
2018-05-17T11:58:44.702Z,22.52
2018-05-17T11:59:54.803Z,22.51
2018-05-17T12:01:04.669Z,22.61
2018-05-17T12:02:14.756Z,22.67
2018-05-17T12:03:24.861Z,22.73
2018-05-17T12:04:35.037Z,22.81
2018-05-17T12:05:44.869Z,22.89
2018-05-17T12:06:54.969Z,22.89
2018-05-17T12:08:05.100Z,23
2018-05-17T12:09:15.192Z,23.09
2018-05-17T12:10:25.281Z,23.22
2018-05-17T12:11:35.375Z,23.24
2018-05-17T12:12:45.220Z,23.21
2018-05-17T12:13:55.058Z,23.18
2018-05-17T12:15:04.906Z,23.24
2018-05-17T12:16:14.999Z,23.15
2018-05-17T12:17:24.846Z,23.12
2018-05-17T12:18:34.921Z,23.07
2018-05-17T12:19:44.807Z,22.91
2018-05-17T12:20:54.898Z,22.73
2018-05-17T12:22:04.723Z,22.66
2018-05-17T12:23:14.859Z,22.7
2018-05-17T12:24:25.047Z,22.69
2018-05-17T12:25:35.179Z,22.71
2018-05-17T12:26:45.471Z,22.71
2018-05-17T12:27:55.318Z,22.7
2018-05-17T12:29:05.139Z,22.75
2018-05-17T12:30:15.216Z,22.66
2018-05-17T12:31:25.375Z,22.91
2018-05-17T12:32:35.216Z,23.07
2018-05-17T12:33:45.611Z,23.34
2018-05-17T12:34:55.707Z,23.59
2018-05-17T12:36:05.785Z,23.66
2018-05-17T12:37:15.904Z,23.75
2018-05-17T12:38:25.989Z,23.85
2018-05-17T12:39:35.823Z,24.09
2018-05-17T12:40:45.893Z,24.27
2018-05-17T12:41:55.975Z,24.48
2018-05-17T12:43:05.850Z,24.64
2018-05-17T12:44:15.692Z,24.74
2018-05-17T12:45:25.781Z,24.92
2018-05-17T12:46:35.894Z,25
2018-05-17T12:47:45.990Z,25.09
2018-05-17T12:48:56.135Z,25.23
2018-05-17T12:50:06.230Z,25.38
2018-05-17T12:51:16.333Z,25.51
2018-05-17T12:52:26.160Z,25.63
2018-05-17T12:53:36.286Z,25.7
2018-05-17T12:54:46.423Z,25.81
2018-05-17T12:55:56.260Z,25.79
2018-05-17T12:57:06.368Z,25.86
2018-05-17T12:58:16.458Z,25.76
2018-05-17T12:59:26.009Z,25.64
2018-05-17T13:00:36.233Z,25.45
2018-05-17T13:01:46.310Z,25.24
2018-05-17T13:02:56.403Z,25
2018-05-17T13:04:06.494Z,24.97
2018-05-17T13:05:16.597Z,25.01
2018-05-17T13:06:26.698Z,25.19
2018-05-17T13:07:36.786Z,25.37
2018-05-17T13:08:46.881Z,25.51
2018-05-17T13:09:56.973Z,25.88
2018-05-17T13:11:07.062Z,26.06
2018-05-17T13:12:17.200Z,26.3
2018-05-17T13:13:27.298Z,26.41
2018-05-17T13:14:37.142Z,26.57
2018-05-17T13:15:47.262Z,26.81
2018-05-17T13:16:57.352Z,26.9
2018-05-17T13:18:07.432Z,26.93
2018-05-17T13:19:17.260Z,26.75
2018-05-17T13:20:27.099Z,26.61
2018-05-17T13:21:36.932Z,26.44
2018-05-17T13:22:47.028Z,26.27
2018-05-17T13:23:57.197Z,26.07
2018-05-17T13:25:07.036Z,25.89
2018-05-17T13:26:17.133Z,25.63
2018-05-17T13:27:26.982Z,25.45
2018-05-17T13:28:36.806Z,25.23
2018-05-17T13:29:46.951Z,24.97
2018-05-17T13:30:57.037Z,24.93
2018-05-17T13:32:07.149Z,24.7
2018-05-17T13:33:17.355Z,24.55
2018-05-17T13:34:27.454Z,24.33
2018-05-17T13:35:37.601Z,24.18
2018-05-17T13:36:47.699Z,24.02
2018-05-17T13:37:57.846Z,23.9
2018-05-17T13:39:07.957Z,23.75
2018-05-17T13:40:18.043Z,23.64
2018-05-17T13:41:28.184Z,23.52
2018-05-17T13:42:38.022Z,23.52
2018-05-17T13:43:47.854Z,23.4
2018-05-17T13:44:57.944Z,23.4
2018-05-17T13:46:07.791Z,23.22
2018-05-17T13:47:17.369Z,23.21
2018-05-17T13:48:27.191Z,23.18
2018-05-17T13:49:37.034Z,23.04
2018-05-17T13:50:47.118Z,23.01
2018-05-17T13:51:57.193Z,23.04
2018-05-17T13:53:07.271Z,22.96
2018-05-17T13:54:16.838Z,23.07
2018-05-17T13:55:27.013Z,23.07
2018-05-17T13:56:37.181Z,23.04
2018-05-17T13:57:47.291Z,23.07
2018-05-17T13:58:57.455Z,23.03
2018-05-17T14:00:07.022Z,22.97
2018-05-17T14:01:16.835Z,22.94
2018-05-17T14:02:27.101Z,22.85
2018-05-17T14:03:37.602Z,22.79
2018-05-17T14:04:47.695Z,22.69
2018-05-17T14:05:57.524Z,22.59
2018-05-17T14:07:07.381Z,22.52
2018-05-17T14:08:17.497Z,22.61
2018-05-17T14:09:27.329Z,22.59
2018-05-17T14:10:37.489Z,22.59
2018-05-17T14:11:47.098Z,22.6
2018-05-17T14:12:57.326Z,22.45
2018-05-17T14:14:07.397Z,22.46
2018-05-17T14:15:17.592Z,22.51
2018-05-17T14:16:27.961Z,22.59
2018-05-17T14:17:38.055Z,22.55
2018-05-17T14:18:48.161Z,22.61
2018-05-17T14:19:57.968Z,22.69
2018-05-17T14:21:08.083Z,22.66
2018-05-17T14:22:17.911Z,22.71
2018-05-17T14:23:27.768Z,22.73
2018-05-17T14:24:37.864Z,22.78
2018-05-17T14:25:47.732Z,22.76
2018-05-17T14:26:57.848Z,23.01
2018-05-17T14:28:07.979Z,23
2018-05-17T14:29:18.089Z,23.09
2018-05-17T14:30:28.192Z,23.22
2018-05-17T14:31:38.308Z,23.4
2018-05-17T14:32:48.629Z,23.57
2018-05-17T14:33:58.442Z,23.64
2018-05-17T14:35:08.573Z,23.78
2018-05-17T14:36:18.397Z,23.9
2018-05-17T14:37:28.508Z,24.03
2018-05-17T14:38:38.069Z,23.97
2018-05-17T14:39:48.261Z,24.02
2018-05-17T14:40:58.346Z,23.94
2018-05-17T14:42:08.229Z,24
2018-05-17T14:43:18.317Z,24.03
2018-05-17T14:44:28.454Z,23.93
2018-05-17T14:45:38.549Z,23.97
2018-05-17T14:46:48.378Z,23.96
2018-05-17T14:47:58.476Z,24.02
2018-05-17T14:49:08.305Z,23.97
2018-05-17T14:50:18.407Z,24.03
2018-05-17T14:51:28.584Z,24
2018-05-17T14:52:38.675Z,24.11
2018-05-17T14:53:48.763Z,24.15
2018-05-17T14:54:58.853Z,24.15
2018-05-17T14:56:09.025Z,24.14
2018-05-17T14:57:19.180Z,24.14
2018-05-17T14:58:29.290Z,24.15
2018-05-17T14:59:39.386Z,24.24
2018-05-17T15:00:49.529Z,24.29
2018-05-17T15:01:59.628Z,24.24
2018-05-17T15:03:09.732Z,24.24
2018-05-17T15:04:19.829Z,24.18
2018-05-17T15:05:29.928Z,24.14
2018-05-17T15:06:40.038Z,24.02
2018-05-17T15:07:50.224Z,24.09
2018-05-17T15:09:00.501Z,24.11
2018-05-17T15:10:10.612Z,24.15
2018-05-17T15:11:20.885Z,24.15
2018-05-17T15:12:31.313Z,24.12
2018-05-17T15:13:41.425Z,23.96
2018-05-17T15:14:51.513Z,23.97
2018-05-17T15:16:01.621Z,23.96
2018-05-17T15:17:11.701Z,23.96
2018-05-17T15:18:21.284Z,23.97
2018-05-17T15:19:31.130Z,23.9
2018-05-17T15:20:40.963Z,23.85
2018-05-17T15:21:51.077Z,23.77
2018-05-17T15:23:01.180Z,23.77
2018-05-17T15:24:11.258Z,23.81
2018-05-17T15:25:21.352Z,23.82
2018-05-17T15:26:31.215Z,23.85
2018-05-17T15:27:41.574Z,23.94
2018-05-17T15:28:51.406Z,23.94
2018-05-17T15:30:01.071Z,24.03
2018-05-17T15:31:11.280Z,24.27
2018-05-17T15:32:21.123Z,24.34
2018-05-17T15:33:30.978Z,24.37
2018-05-17T15:34:41.058Z,24.15
2018-05-17T15:35:50.616Z,24.02
2018-05-17T15:37:00.535Z,24.02
2018-05-17T15:38:10.607Z,23.94